메인 페이지
METAR-TAF:

METAR-TAF

공항 :

바그다드 국제공항

바그다드, 이라크

위도: 33-15-45N, 경도: 44-14-04E, 고도: 35m

현재 날씨관측

예보는 29분 전, 10:00시(UTC)에 발표되었습니다.
남남서8kt
온도 14°C
습도 63%
기압 1014 hPa
시정 10km 이상
1500m 미만 상공 구름 및 적란운 없음

METAR: ORBI 181000Z 21008KT CAVOK 14/07 Q1014 NOSIG

시각: 13:29 (10:29 UTC)

예보

예보는 5 시간 29분 전, 05:00시(UTC)에 발표되었습니다.
예보 대상 시간: 18일 06시부터 19일 06시까지 (UTC)
5kt
시정: 5000m
박무
일시적
18일 05시부터 18일 08시까지 (UTC)
시정: 2500m
전환 중
18일 09시부터 18일 11시까지 (UTC)
8kt
시정: 7000m

TAF: ORBI 180500Z 1806/1906 17005KT 5000 BR NSC TEMPO 1805/1808 2500 BECMG 1809/1811 28008KT 7000 NSC

4,000개 이상의 공항 관측 자료 및 예보 (METAR 및 TAF 보고).

지도상에서 검색 가능한 기상관측소가 노란 점과 빨간 점으로 표시되어 있습니다.

기상관측소 명을 보려면 표시 위로 마우스를 이동하세요.

날씨 관측과 예보를 보려면 클릭하세요.

지도 변경 : 확대하려면 엑스 표시가 있는 녹색 버튼, 축소하려면 빼기 표시가 있는 녹색 버튼, 다음 페이지의 지도를 보려면 녹색 화살표를 클릭하세요.


METAR-TAF: